Time;durP1;ratioP1;P1;durP2;ratioP2;P2;SDS_P1;SDS_P2;PMS_P1;PMS_P2;Temp;Humidity;BMP_temperature;BMP_pressure;BME280_temperature;BME280_humidity;BME280_pressure;Samples;Min_cycle;Max_cycle;Signal;HPM_P1;HPM_P2
2021/03/03 00:01:58;;;;;;;;;;;;;;;17.97;63.07;102301.91;5032351;28;2012;-46
2021/03/03 00:04:25;;;;;;;;;;;;;;;17.95;63.49;102295.78;5032203;28;1685;-46
2021/03/03 00:06:50;;;;;;;;;;;;;;;17.93;63.59;102293.19;5032172;28;1656;-45
2021/03/03 00:09:15;;;;;;;;;;;;;;;17.95;62.96;102290.41;5034040;28;1752;-46
2021/03/03 00:11:40;;;;;;;;;;;;;;;17.92;63.44;102290.59;5025524;28;1550;-46
2021/03/03 00:14:06;;;;;;;;;;;;;;;17.89;63.63;102295.16;5035406;28;1525;-47
2021/03/03 00:16:31;;;;;;;;;;;;;;;17.90;63.10;102298.69;5035898;28;1691;-46
2021/03/03 00:18:56;;;;;;;;;;;;;;;17.91;62.73;102299.59;5036235;28;1724;-45
2021/03/03 00:21:21;;;;;;;;;;;;;;;17.93;63.21;102303.88;5017262;28;1965;-45
2021/03/03 00:23:46;;;;;;;;;;;;;;;17.88;63.43;102280.06;5022038;28;1705;-46
2021/03/03 00:26:12;;;;;;;;;;;;;;;17.86;63.32;102295.34;5035445;28;1761;-46
2021/03/03 00:28:37;;;;;;;;;;;;;;;17.88;63.05;102296.09;5035610;28;1663;-46
2021/03/03 00:31:02;;;;;;;;;;;;;;;17.86;63.21;102298.00;5035242;28;1703;-47
2021/03/03 00:33:27;;;;;;;;;;;;;;;17.85;62.71;102307.00;5034926;28;1739;-46
2021/03/03 00:35:53;;;;;;;;;;;;;;;17.87;62.82;102298.91;5035679;28;1731;-46
2021/03/03 00:38:18;;;;;;;;;;;;;;;17.84;62.65;102291.03;5035150;28;1685;-46
2021/03/03 00:40:43;;;;;;;;;;;;;;;17.84;62.74;102297.25;5035378;28;1959;-45
2021/03/03 00:43:08;;;;;;;;;;;;;;;17.85;63.48;102298.97;5034841;28;1772;-46
2021/03/03 00:45:34;;;;;;;;;;;;;;;17.84;63.82;102305.28;5035297;28;1626;-46
2021/03/03 00:47:59;;;;;;;;;;;;;;;17.83;63.62;102295.53;5035133;28;1641;-46
2021/03/03 00:50:24;;;;;;;;;;;;;;;17.83;62.82;102297.31;5033964;28;1502;-46
2021/03/03 00:52:50;;;;;;;;;;;;;;;17.79;63.00;102293.97;5034077;28;1724;-45
2021/03/03 00:55:15;;;;;;;;;;;;;;;17.79;63.46;102296.63;5033943;28;1741;-46
2021/03/03 00:57:40;;;;;;;;;;;;;;;17.79;62.57;102296.63;5033245;28;1452;-46
2021/03/03 01:00:06;;;;;;;;;;;;;;;17.80;63.40;102303.69;5033951;28;1879;-46
2021/03/03 01:02:32;;;;;;;;;;;;;;;17.83;63.76;102302.69;5034365;28;1688;-45
2021/03/03 01:04:57;;;;;;;;;;;;;;;17.78;62.80;102294.91;5033114;28;1646;-46
2021/03/03 01:07:22;;;;;;;;;;;;;;;17.79;63.57;102285.09;5033194;28;1604;-46
2021/03/03 01:09:47;;;;;;;;;;;;;;;17.81;63.40;102301.91;5033359;28;1979;-46
2021/03/03 01:12:12;;;;;;;;;;;;;;;17.80;63.49;102284.97;5033951;28;1677;-46
2021/03/03 01:14:38;;;;;;;;;;;;;;;17.82;62.96;102295.59;5022009;28;1534;-45
2021/03/03 01:17:03;;;;;;;;;;;;;;;17.80;63.13;102303.69;5030722;28;1729;-46
2021/03/03 01:19:28;;;;;;;;;;;;;;;17.78;63.68;102294.91;5032757;28;1995;-45
2021/03/03 01:21:53;;;;;;;;;;;;;;;17.76;62.87;102280.75;5033186;28;1931;-46
2021/03/03 01:24:19;;;;;;;;;;;;;;;17.75;62.92;102279.03;5033394;28;1745;-46
2021/03/03 01:26:44;;;;;;;;;;;;;;;17.77;62.80;102298.53;5032250;28;1695;-46
2021/03/03 01:29:09;;;;;;;;;;;;;;;17.77;63.60;102301.22;5033072;28;1683;-48
2021/03/03 01:31:34;;;;;;;;;;;;;;;17.75;62.73;102295.09;5034091;28;1740;-46
2021/03/03 01:34:00;;;;;;;;;;;;;;;17.71;63.28;102309.59;5033951;28;1664;-46
2021/03/03 01:36:25;;;;;;;;;;;;;;;17.71;63.41;102298.91;5034009;28;1729;-46
2021/03/03 01:38:51;;;;;;;;;;;;;;;17.72;62.56;102303.28;5034176;28;1801;-46
2021/03/03 01:41:16;;;;;;;;;;;;;;;17.70;62.71;102286.47;5034142;28;1890;-46
2021/03/03 01:43:41;;;;;;;;;;;;;;;17.68;62.63;102293.72;5033824;28;1689;-46
2021/03/03 01:46:07;;;;;;;;;;;;;;;17.68;63.11;102305.28;5033161;28;1721;-46
2021/03/03 01:48:32;;;;;;;;;;;;;;;17.69;62.64;102295.47;5034146;28;1728;-46
2021/03/03 01:50:57;;;;;;;;;;;;;;;17.67;63.18;102302.72;5034112;28;1776;-46
2021/03/03 01:53:22;;;;;;;;;;;;;;;17.65;63.12;102291.25;5032200;28;1682;-46
2021/03/03 01:55:48;;;;;;;;;;;;;;;17.69;62.29;102287.44;5033761;28;1486;-45
2021/03/03 01:58:13;;;;;;;;;;;;;;;17.68;63.57;102293.72;5033570;28;1777;-46
2021/03/03 02:00:39;;;;;;;;;;;;;;;17.67;62.46;102284.00;5033911;28;1941;-46
2021/03/03 02:03:04;;;;;;;;;;;;;;;17.66;63.44;102290.28;5033556;28;1722;-47
2021/03/03 02:05:29;;;;;;;;;;;;;;;17.66;63.46;102292.94;5033374;28;1714;-46
2021/03/03 02:07:59;;;;;;;;;;;;;;;17.65;63.50;102300.13;5033352;28;1769;-46
2021/03/03 02:10:40;;;;;;;;;;;;;;;17.64;62.70;102294.84;5032543;28;1659;-46
2021/03/03 02:13:20;;;;;;;;;;;;;;;17.61;63.36;102290.56;5033096;28;1725;-46
2021/03/03 02:15:46;;;;;;;;;;;;;;;17.62;62.55;102283.38;5034070;28;1674;-46
2021/03/03 02:18:12;;;;;;;;;;;;;;;17.63;63.05;102298.50;5024388;28;1375;-45
2021/03/03 02:20:52;;;;;;;;;;;;;;;17.64;63.05;102308.22;5033348;28;1922;-46
2021/03/03 02:23:20;;;;;;;;;;;;;;;17.64;62.50;102305.56;5031928;28;1659;-46
2021/03/03 02:25:47;;;;;;;;;;;;;;;17.64;63.34;102306.41;5032858;28;1671;-45
2021/03/03 02:28:14;;;;;;;;;;;;;;;17.63;63.45;102304.69;5032414;28;1537;-46
2021/03/03 02:30:41;;;;;;;;;;;;;;;17.62;62.50;102299.44;5032194;28;1689;-46
2021/03/03 02:33:07;;;;;;;;;;;;;;;17.67;62.81;102303.56;5031650;28;1738;-46
2021/03/03 02:35:32;;;;;;;;;;;;;;;17.68;63.81;102309.78;5032274;28;1891;-46
2021/03/03 02:37:58;;;;;;;;;;;;;;;17.62;63.03;102310.13;5032690;28;1398;-46
2021/03/03 02:40:25;;;;;;;;;;;;;;;17.63;63.01;102327.91;5032397;28;1890;-46
2021/03/03 02:42:51;;;;;;;;;;;;;;;17.60;63.48;102320.06;5032277;28;1422;-46
2021/03/03 02:45:18;;;;;;;;;;;;;;;17.58;62.55;102309.44;5031704;28;1770;-46
2021/03/03 02:47:44;;;;;;;;;;;;;;;17.62;62.50;102321.69;5032516;28;1728;-46
2021/03/03 02:50:10;;;;;;;;;;;;;;;17.58;62.88;102319.28;5032963;28;1773;-46
2021/03/03 02:52:54;;;;;;;;;;;;;;;17.56;63.45;102334.56;5032554;28;1723;-46
2021/03/03 02:55:20;;;;;;;;;;;;;;;17.57;63.86;102328.28;5032340;28;1627;-46
2021/03/03 02:57:46;;;;;;;;;;;;;;;17.56;63.70;102340.75;5032936;28;1741;-45
2021/03/03 03:03:32;;;;;;;;;;;;;;;17.53;62.85;102332.03;5032540;28;1700;-45
2021/03/03 03:06:09;;;;;;;;;;;;;;;17.53;63.47;102334.72;5028935;28;1704;-46
2021/03/03 03:08:35;;;;;;;;;;;;;;;17.50;63.14;102343.78;5026212;28;1696;-46
2021/03/03 03:11:05;;;;;;;;;;;;;;;17.53;62.89;102345.41;5040631;23;3554;-55
2021/03/03 03:13:31;;;;;;;;;;;;;;;17.51;63.49;102348.22;5020034;28;1419;-55
2021/03/03 03:15:58;;;;;;;;;;;;;;;17.52;63.09;102354.41;5023837;28;1584;-55
2021/03/03 03:18:43;;;;;;;;;;;;;;;17.47;62.50;102339.50;5019640;28;1521;-55
2021/03/03 03:21:10;;;;;;;;;;;;;;;17.53;62.62;102358.78;5023238;28;1985;-55
2021/03/03 03:23:36;;;;;;;;;;;;;;;17.49;63.48;102364.34;5025921;28;1636;-60
2021/03/03 03:26:04;;;;;;;;;;;;;;;17.48;63.40;102351.91;5019773;28;1506;-60
2021/03/03 03:28:29;;;;;;;;;;;;;;;17.46;62.69;102361.81;5012329;28;1391;-55
2021/03/03 03:30:55;;;;;;;;;;;;;;;17.48;63.46;102369.75;5024456;28;1512;-55
2021/03/03 03:33:21;;;;;;;;;;;;;;;17.49;63.56;102361.66;5020864;28;1678;-59
2021/03/03 03:35:47;;;;;;;;;;;;;;;17.48;62.68;102372.44;5013300;28;1415;-55
2021/03/03 03:38:12;;;;;;;;;;;;;;;17.46;63.13;102379.69;5026237;28;1621;-55
2021/03/03 03:40:38;;;;;;;;;;;;;;;17.46;64.01;102366.31;5026929;28;1939;-55
2021/03/03 03:43:06;;;;;;;;;;;;;;;17.46;62.91;102367.16;5021171;28;1517;-55
2021/03/03 03:45:32;;;;;;;;;;;;;;;17.47;63.85;102366.22;5028927;28;1501;-55
2021/03/03 03:47:58;;;;;;;;;;;;;;;17.47;63.37;102371.59;5027745;28;1525;-60
2021/03/03 03:50:25;;;;;;;;;;;;;;;17.47;63.20;102363.56;5024652;28;1609;-55
2021/03/03 03:52:52;;;;;;;;;;;;;;;17.46;63.44;102369.00;5028650;28;1513;-55
2021/03/03 03:55:18;;;;;;;;;;;;;;;17.49;63.61;102384.88;5025855;28;1450;-60
2021/03/03 03:57:50;;;;;;;;;;;;;;;17.46;62.77;102371.66;5026755;28;1541;-55
2021/03/03 04:00:17;;;;;;;;;;;;;;;17.46;62.32;102385.88;5023199;28;1898;-55
2021/03/03 04:02:43;;;;;;;;;;;;;;;17.48;62.84;102384.00;5026791;28;1657;-60
2021/03/03 04:05:09;;;;;;;;;;;;;;;17.54;65.52;102388.13;5028082;28;1601;-60
2021/03/03 04:07:34;;;;;;;;;;;;;;;17.52;65.10;102390.03;5022530;28;10860;-60
2021/03/03 04:09:59;;;;;;;;;;;;;;;17.50;64.31;102382.09;5015144;28;1480;-60
2021/03/03 04:12:25;;;;;;;;;;;;;;;17.52;64.12;102384.69;5025315;28;1474;-59
2021/03/03 04:14:50;;;;;;;;;;;;;;;17.52;63.31;102389.19;5028112;28;1458;-55
2021/03/03 04:17:16;;;;;;;;;;;;;;;17.55;63.82;102391.66;5023676;28;1509;-60
2021/03/03 04:19:41;;;;;;;;;;;;;;;17.57;65.05;102392.47;5021770;28;1584;-56
2021/03/03 04:22:08;;;;;;;;;;;;;;;17.59;65.00;102401.28;5016079;28;1973;-61
2021/03/03 04:24:33;;;;;;;;;;;;;;;17.56;64.29;102386.25;5022874;28;1509;-59
2021/03/03 04:26:58;;;;;;;;;;;;;;;17.56;63.74;102391.59;5018139;28;1771;-60
2021/03/03 04:29:24;;;;;;;;;;;;;;;17.58;64.41;102400.38;5030701;28;1315;-60
2021/03/03 04:31:49;;;;;;;;;;;;;;;17.60;64.32;102393.13;5028721;28;1249;-59
2021/03/03 04:34:14;;;;;;;;;;;;;;;17.66;63.39;102390.13;5022814;28;1585;-63
2021/03/03 04:36:40;;;;;;;;;;;;;;;17.67;65.03;102396.34;5024967;28;1616;-62
2021/03/03 04:39:05;;;;;;;;;;;;;;;17.63;65.00;102411.72;5026276;28;1482;-57
2021/03/03 04:41:30;;;;;;;;;;;;;;;17.55;65.80;102400.56;5028996;28;1939;-61
2021/03/03 04:43:55;;;;;;;;;;;;;;;17.42;64.00;102403.06;5005581;28;1508;-56
2021/03/03 04:46:21;;;;;;;;;;;;;;;17.48;63.75;102412.56;5027134;28;1505;-56
2021/03/03 04:48:46;;;;;;;;;;;;;;;17.33;63.62;102419.63;5029117;28;1466;-56
2021/03/03 04:51:11;;;;;;;;;;;;;;;17.35;64.86;102420.41;5024279;28;1522;-58
2021/03/03 04:53:36;;;;;;;;;;;;;;;17.50;63.85;102430.25;5016515;28;1585;-59
2021/03/03 04:56:01;;;;;;;;;;;;;;;17.59;65.31;102423.53;5015145;28;1632;-56
2021/03/03 04:58:27;;;;;;;;;;;;;;;17.64;64.34;102425.94;5019008;28;1657;-58
2021/03/03 05:00:52;;;;;;;;;;;;;;;17.74;65.03;102415.59;5024293;28;1894;-59
2021/03/03 05:03:19;;;;;;;;;;;;;;;17.67;64.73;102426.63;5019111;28;1632;-59
2021/03/03 05:05:44;;;;;;;;;;;;;;;17.74;65.75;102434.31;5022523;28;1332;-61
2021/03/03 05:08:10;;;;;;;;;;;;;;;17.84;65.46;102433.72;5018960;28;1521;-59
2021/03/03 05:10:35;;;;;;;;;;;;;;;17.90;65.31;102432.53;5023685;28;1497;-59
2021/03/03 05:13:00;;;;;;;;;;;;;;;17.95;64.82;102429.59;5022931;28;1462;-59
2021/03/03 05:15:26;;;;;;;;;;;;;;;18.01;64.79;102445.31;5020715;28;1498;-58
2021/03/03 05:17:51;;;;;;;;;;;;;;;18.02;64.31;102436.31;5023040;28;1411;-58
2021/03/03 05:20:16;;;;;;;;;;;;;;;18.03;64.48;102427.34;5025417;28;1922;-59
2021/03/03 05:22:42;;;;;;;;;;;;;;;18.17;64.40;102440.78;5023395;28;1581;-58
2021/03/03 05:25:07;;;;;;;;;;;;;;;18.13;64.33;102443.75;5020668;28;1522;-59
2021/03/03 05:27:32;;;;;;;;;;;;;;;18.13;64.26;102449.94;5016083;28;781;-57
2021/03/03 05:29:58;;;;;;;;;;;;;;;18.11;64.10;102454.53;4998867;28;773;-59
2021/03/03 05:32:23;;;;;;;;;;;;;;;18.11;64.46;102462.56;5016217;28;924;-57
2021/03/03 05:34:48;;;;;;;;;;;;;;;18.11;64.63;102457.19;5015974;28;785;-56
2021/03/03 05:37:14;;;;;;;;;;;;;;;18.12;64.13;102460.72;5016434;28;868;-56
2021/03/03 05:39:39;;;;;;;;;;;;;;;18.13;64.53;102454.44;5016376;28;788;-56
2021/03/03 05:42:04;;;;;;;;;;;;;;;18.14;63.95;102457.00;5015985;28;1963;-59
2021/03/03 05:44:30;;;;;;;;;;;;;;;18.13;64.39;102460.66;5016285;28;989;-57
2021/03/03 05:46:58;;;;;;;;;;;;;;;18.13;64.15;102471.38;5016010;28;809;-59
2021/03/03 05:49:24;;;;;;;;;;;;;;;18.08;64.47;102463.59;5016712;28;847;-59
2021/03/03 05:51:51;;;;;;;;;;;;;;;18.04;64.09;102456.66;5016182;28;788;-58
2021/03/03 05:54:16;;;;;;;;;;;;;;;18.05;64.72;102463.78;5015817;28;805;-56
2021/03/03 05:56:43;;;;;;;;;;;;;;;18.03;64.63;102473.69;5016077;28;850;-57
2021/03/03 05:59:14;;;;;;;;;;;;;;;18.03;64.86;102468.34;5016103;28;872;-56
2021/03/03 06:01:40;;;;;;;;;;;;;;;18.04;63.92;102477.22;5015602;28;1910;-58
2021/03/03 06:04:06;;;;;;;;;;;;;;;18.01;64.41;102488.13;5015668;28;829;-58
2021/03/03 06:06:31;;;;;;;;;;;;;;;18.04;64.34;102466.53;5015793;28;748;-56
2021/03/03 06:08:56;;;;;;;;;;;;;;;18.07;63.72;102477.06;5015580;28;865;-56
2021/03/03 06:11:22;;;;;;;;;;;;;;;18.08;63.84;102484.13;5015665;28;1075;-59
2021/03/03 06:13:47;;;;;;;;;;;;;;;18.07;64.17;102482.44;5015472;28;773;-56
2021/03/03 06:16:15;;;;;;;;;;;;;;;18.10;63.89;102476.88;5015474;28;853;-56
2021/03/03 06:18:41;;;;;;;;;;;;;;;18.11;63.64;102472.41;5015686;28;733;-59
2021/03/03 06:21:22;;;;;;;;;;;;;;;18.14;63.78;102481.09;5015655;28;1969;-57
2021/03/03 06:23:57;;;;;;;;;;;;;;;18.16;63.81;102497.94;5015393;28;837;-59
2021/03/03 06:26:22;;;;;;;;;;;;;;;18.14;63.66;102483.78;5016172;28;749;-56
2021/03/03 06:28:47;;;;;;;;;;;;;;;18.19;63.57;102492.44;5015549;28;828;-56
2021/03/03 06:31:23;;;;;;;;;;;;;;;18.18;63.66;102485.34;5015603;28;770;-56
2021/03/03 06:33:49;;;;;;;;;;;;;;;18.24;63.89;102508.22;5015310;28;738;-56
2021/03/03 06:36:21;;;;;;;;;;;;;;;18.23;63.23;102491.31;5015164;28;989;-56
2021/03/03 06:38:46;;;;;;;;;;;;;;;18.23;63.21;102485.94;5015137;28;883;-57
2021/03/03 06:41:11;;;;;;;;;;;;;;;18.23;63.33;102485.94;5015080;28;1889;-59
2021/03/03 06:43:37;;;;;;;;;;;;;;;18.27;63.18;102490.16;5015460;28;735;-59
2021/03/03 06:46:15;;;;;;;;;;;;;;;18.31;63.06;102488.19;5015031;28;805;-59
2021/03/03 06:48:41;;;;;;;;;;;;;;;18.35;63.30;102491.56;5015194;28;785;-59
2021/03/03 06:51:19;;;;;;;;;;;;;;;18.36;63.46;102487.91;5015298;28;785;-59
2021/03/03 06:53:44;;;;;;;;;;;;;;;18.39;63.29;102487.75;5015015;28;734;-59
2021/03/03 06:56:09;;;;;;;;;;;;;;;18.41;63.20;102505.44;5015234;28;754;-59
2021/03/03 06:58:34;;;;;;;;;;;;;;;18.39;63.21;102491.28;5015160;28;1065;-56
2021/03/03 07:00:59;;;;;;;;;;;;;;;18.44;62.95;102513.31;5015166;28;1945;-59
2021/03/03 07:03:25;;;;;;;;;;;;;;;18.42;63.11;102503.63;5015142;28;1373;-56
2021/03/03 07:05:50;;;;;;;;;;;;;;;18.45;62.64;102479.34;5007180;28;1375;-56
2021/03/03 07:08:16;;;;;;;;;;;;;;;18.47;62.55;102496.19;5011486;28;1252;-56
2021/03/03 07:10:42;;;;;;;;;;;;;;;18.46;63.03;102484.63;4995420;28;1403;-59
2021/03/03 07:13:07;;;;;;;;;;;;;;;18.51;62.71;102488.84;4995589;28;1391;-57
2021/03/03 07:15:32;;;;;;;;;;;;;;;18.49;62.79;102497.81;4995339;28;1388;-59
2021/03/03 07:17:57;;;;;;;;;;;;;;;18.51;62.52;102489.69;5010188;28;1105;-59
2021/03/03 07:20:24;;;;;;;;;;;;;;;18.53;62.77;102500.31;4999560;28;1943;-56
2021/03/03 07:22:50;;;;;;;;;;;;;;;18.51;62.81;102491.53;5016253;28;1156;-56
2021/03/03 07:25:17;;;;;;;;;;;;;;;18.48;62.42;102487.19;5018160;28;1129;-59
2021/03/03 07:27:43;;;;;;;;;;;;;;;18.49;62.86;102488.91;5016610;28;1341;-59
2021/03/03 07:30:15;;;;;;;;;;;;;;;18.50;63.11;102482.59;5017049;28;1550;-56
2021/03/03 07:32:41;;;;;;;;;;;;;;;18.52;62.43;102496.75;5015609;28;1494;-59
2021/03/03 07:35:07;;;;;;;;;;;;;;;18.54;62.90;102496.69;5014058;28;1367;-59
2021/03/03 07:37:34;;;;;;;;;;;;;;;18.55;62.97;102487.72;5017356;28;1197;-59
2021/03/03 07:40:12;;;;;;;;;;;;;;;18.53;63.27;102478.91;5017583;28;986;-59
2021/03/03 07:42:38;;;;;;;;;;;;;;;18.52;62.90;102480.69;5017764;28;1948;-59
2021/03/03 07:45:08;;;;;;;;;;;;;;;18.53;63.14;102485.09;5017775;28;1121;-56
2021/03/03 07:47:35;;;;;;;;;;;;;;;18.54;62.88;102484.13;5017107;28;1656;-56
2021/03/03 07:50:08;;;;;;;;;;;;;;;18.53;62.87;102486.94;5001487;28;1113;-59
2021/03/03 07:52:33;;;;;;;;;;;;;;;18.54;62.78;102502.88;4998099;28;1125;-59
2021/03/03 07:54:59;;;;;;;;;;;;;;;18.55;62.90;102488.56;5012134;28;1101;-58
2021/03/03 07:57:25;;;;;;;;;;;;;;;18.55;63.22;102498.41;4998316;28;1108;-56
2021/03/03 07:59:52;;;;;;;;;;;;;;;18.56;62.95;102495.66;5011096;28;1148;-56
2021/03/03 08:02:17;;;;;;;;;;;;;;;18.57;62.61;102480.44;4998180;28;1954;-57
2021/03/03 08:04:42;;;;;;;;;;;;;;;18.59;63.26;102487.41;5009383;28;1200;-59
2021/03/03 08:07:15;;;;;;;;;;;;;;;18.61;62.82;102487.34;5004589;28;1062;-56
2021/03/03 08:10:00;;;;;;;;;;;;;;;18.58;62.68;102493.75;5011486;28;1180;-56
2021/03/03 08:12:25;;;;;;;;;;;;;;;18.61;62.90;102488.19;5015576;28;2095;-59
2021/03/03 08:14:50;;;;;;;;;;;;;;;18.62;62.75;102489.94;5017317;28;1152;-56
2021/03/03 08:17:24;;;;;;;;;;;;;;;18.65;62.98;102489.72;5016989;28;1167;-59
2021/03/03 08:19:56;;;;;;;;;;;;;;;18.65;62.68;102484.38;5017359;28;1200;-56
2021/03/03 08:22:41;;;;;;;;;;;;;;;18.65;62.44;102484.38;5016902;28;1906;-56
2021/03/03 08:25:08;;;;;;;;;;;;;;;18.65;62.61;102484.38;5016862;28;1867;-58
2021/03/03 08:27:33;;;;;;;;;;;;;;;18.66;62.94;102486.13;5017174;28;1140;-59
2021/03/03 08:30:17;;;;;;;;;;;;;;;18.63;62.51;102483.59;5015786;28;1228;-59
2021/03/03 08:32:42;;;;;;;;;;;;;;;18.65;62.74;102480.84;5016790;28;1109;-56
2021/03/03 08:35:08;;;;;;;;;;;;;;;18.65;62.72;102488.88;5017257;28;1184;-58
2021/03/03 08:37:35;;;;;;;;;;;;;;;18.64;62.84;102479.97;5016660;28;1203;-56
2021/03/03 08:40:02;;;;;;;;;;;;;;;18.63;62.96;102475.56;4999056;28;1383;-59
2021/03/03 08:42:31;;;;;;;;;;;;;;;18.64;62.76;102471.94;5009972;28;1890;-56
2021/03/03 08:45:01;;;;;;;;;;;;;;;18.63;62.99;102472.88;5005217;28;1167;-59
2021/03/03 08:47:45;;;;;;;;;;;;;;;18.64;63.01;102474.63;5006116;28;1285;-56
2021/03/03 08:50:27;;;;;;;;;;;;;;;18.65;62.86;102479.00;5003864;28;1208;-56
2021/03/03 08:53:11;;;;;;;;;;;;;;;18.64;62.80;102466.59;5011283;28;1144;-57
2021/03/03 08:55:36;;;;;;;;;;;;;;;18.64;62.77;102482.66;5011326;28;1306;-59
2021/03/03 08:58:01;;;;;;;;;;;;;;;18.61;63.14;102479.31;5010210;28;1283;-56
2021/03/03 09:00:45;;;;;;;;;;;;;;;18.61;62.85;102464.06;5015296;28;1890;-59
2021/03/03 09:03:17;;;;;;;;;;;;;;;18.63;63.03;102464.84;5015834;28;1501;-57
2021/03/03 09:05:43;;;;;;;;;;;;;;;18.63;63.04;102461.31;5015626;28;1591;-56
2021/03/03 09:08:17;;;;;;;;;;;;;;;18.66;62.61;102470.03;5015183;28;773;-59
2021/03/03 09:10:42;;;;;;;;;;;;;;;18.67;62.36;102477.09;5013652;28;1043;-59
2021/03/03 09:13:08;;;;;;;;;;;;;;;18.69;62.65;102467.16;5013643;28;813;-59
2021/03/03 09:15:33;;;;;;;;;;;;;;;18.71;62.28;102466.22;5013469;28;927;-56
2021/03/03 09:17:58;;;;;;;;;;;;;;;18.71;62.60;102472.44;5013459;28;801;-59
2021/03/03 09:20:23;;;;;;;;;;;;;;;18.69;62.47;102475.19;5013564;28;1914;-56
2021/03/03 09:22:49;;;;;;;;;;;;;;;18.62;62.41;102463.13;5014008;28;778;-56
2021/03/03 09:25:16;;;;;;;;;;;;;;;18.69;62.42;102472.50;5014475;28;847;-59
2021/03/03 09:27:52;;;;;;;;;;;;;;;18.66;62.33;102464.69;5016185;28;794;-56
2021/03/03 09:30:18;;;;;;;;;;;;;;;18.71;62.16;102467.06;5016411;28;738;-56
2021/03/03 09:32:45;;;;;;;;;;;;;;;18.72;62.08;102467.94;5016309;28;1089;-56
2021/03/03 09:35:13;;;;;;;;;;;;;;;18.76;62.26;102473.03;5016313;28;812;-56
2021/03/03 09:37:43;;;;;;;;;;;;;;;18.79;62.31;102475.53;5016251;28;831;-59
2021/03/03 09:40:09;;;;;;;;;;;;;;;18.79;62.20;102475.53;5016275;28;764;-59
2021/03/03 09:42:39;;;;;;;;;;;;;;;18.80;62.11;102473.72;5016327;28;1949;-56
2021/03/03 09:45:05;;;;;;;;;;;;;;;18.80;61.76;102463.00;5016366;28;756;-59
2021/03/03 09:47:31;;;;;;;;;;;;;;;18.82;62.00;102471.81;5016299;28;843;-60
2021/03/03 09:49:57;;;;;;;;;;;;;;;18.83;61.95;102471.72;5016132;28;813;-57
2021/03/03 09:52:25;;;;;;;;;;;;;;;18.81;61.80;102462.91;5015967;28;819;-57
2021/03/03 09:54:50;;;;;;;;;;;;;;;18.82;61.61;102469.13;5016244;28;800;-59
2021/03/03 09:57:18;;;;;;;;;;;;;;;18.78;61.48;102473.81;5016167;28;772;-56
2021/03/03 09:59:44;;;;;;;;;;;;;;;18.79;61.68;102474.66;5016103;28;831;-59
2021/03/03 10:02:11;;;;;;;;;;;;;;;18.80;61.88;102471.03;5015997;28;1956;-57
2021/03/03 10:04:40;;;;;;;;;;;;;;;18.80;61.54;102471.91;5015994;28;887;-59
2021/03/03 10:07:16;;;;;;;;;;;;;;;18.80;61.67;102466.56;5015914;28;827;-56
2021/03/03 10:09:42;;;;;;;;;;;;;;;18.80;61.84;102468.34;5015982;28;764;-56
2021/03/03 10:12:12;;;;;;;;;;;;;;;18.78;61.31;102462.19;5015145;28;1267;-59
2021/03/03 10:14:54;;;;;;;;;;;;;;;18.79;61.80;102458.56;5015814;28;854;-59
2021/03/03 10:17:28;;;;;;;;;;;;;;;18.80;61.85;102449.59;5016158;28;793;-56
2021/03/03 10:19:53;;;;;;;;;;;;;;;18.83;61.63;102444.06;5015522;28;820;-56
2021/03/03 10:22:19;;;;;;;;;;;;;;;18.83;62.00;102449.41;5015669;28;1918;-59
2021/03/03 10:24:45;;;;;;;;;;;;;;;18.86;61.79;102439.38;5015811;28;842;-59
2021/03/03 10:27:19;;;;;;;;;;;;;;;18.85;62.01;102428.75;5013484;28;1155;-56
2021/03/03 10:29:44;;;;;;;;;;;;;;;18.85;61.93;102434.09;5013491;28;1343;-56
2021/03/03 10:32:11;;;;;;;;;;;;;;;18.81;62.09;102411.13;5015210;28;1434;-57
2021/03/03 10:34:36;;;;;;;;;;;;;;;18.82;61.99;102407.47;5012021;28;1251;-59
2021/03/03 10:37:02;;;;;;;;;;;;;;;18.81;61.84;102414.66;5015024;28;1346;-56
2021/03/03 10:39:28;;;;;;;;;;;;;;;18.83;61.79;102418.13;5015413;28;809;-56
2021/03/03 10:42:03;;;;;;;;;;;;;;;18.80;61.76;102402.25;4998336;28;1894;-59
2021/03/03 10:44:41;;;;;;;;;;;;;;;18.80;61.71;102412.97;4995787;28;804;-56
2021/03/03 10:47:07;;;;;;;;;;;;;;;18.79;61.58;102411.22;4995412;28;861;-56
2021/03/03 10:49:33;;;;;;;;;;;;;;;18.82;61.92;102402.13;4995427;28;702;-56
2021/03/03 10:51:58;;;;;;;;;;;;;;;18.81;61.74;102401.25;4995217;28;833;-59
2021/03/03 10:54:33;;;;;;;;;;;;;;;18.80;62.08;102393.31;4995641;28;1565;-56
2021/03/03 10:57:10;;;;;;;;;;;;;;;18.79;62.29;102388.88;4995785;28;1122;-56
2021/03/03 10:59:39;;;;;;;;;;;;;;;18.80;61.89;102374.56;5008351;28;1222;-57
2021/03/03 11:02:06;;;;;;;;;;;;;;;18.80;62.33;102374.56;5002797;28;1894;-59
2021/03/03 11:04:39;;;;;;;;;;;;;;;18.79;62.40;102367.44;5001966;28;1188;-56
2021/03/03 11:07:04;;;;;;;;;;;;;;;18.78;62.26;102371.06;4995556;28;1215;-59
2021/03/03 11:09:30;;;;;;;;;;;;;;;18.79;62.53;102375.50;4999637;28;1251;-56
2021/03/03 11:11:57;;;;;;;;;;;;;;;18.79;62.76;102364.78;4995985;28;1319;-59
2021/03/03 11:14:22;;;;;;;;;;;;;;;18.78;62.49;102347.84;4996732;28;1235;-56
2021/03/03 11:16:48;;;;;;;;;;;;;;;18.79;62.78;102351.38;5010808;28;1398;-59
2021/03/03 11:19:13;;;;;;;;;;;;;;;18.81;62.10;102336.09;5012441;28;1400;-57
2021/03/03 11:21:38;;;;;;;;;;;;;;;18.81;62.24;102341.44;5012700;28;1985;-59
2021/03/03 11:24:04;;;;;;;;;;;;;;;18.81;62.63;102338.75;5012990;28;1297;-59
2021/03/03 11:26:30;;;;;;;;;;;;;;;18.80;62.61;102326.31;5009680;28;1373;-58
2021/03/03 11:28:55;;;;;;;;;;;;;;;18.79;62.47;102333.50;5013497;28;826;-58
2021/03/03 11:31:20;;;;;;;;;;;;;;;18.77;62.76;102327.34;5013432;28;809;-59
2021/03/03 11:33:46;;;;;;;;;;;;;;;18.81;62.89;102328.03;5014263;28;1344;-59
2021/03/03 11:36:11;;;;;;;;;;;;;;;18.78;62.69;102326.41;5014494;28;1069;-56
2021/03/03 11:38:37;;;;;;;;;;;;;;;18.81;62.60;102326.22;5014325;28;1116;-59
2021/03/03 11:41:02;;;;;;;;;;;;;;;18.80;62.38;102337.03;5011593;28;1955;-59
2021/03/03 11:43:27;;;;;;;;;;;;;;;18.78;62.48;102320.16;4998146;28;1144;-59
2021/03/03 11:45:52;;;;;;;;;;;;;;;18.80;62.62;102319.16;5008609;28;1113;-57
2021/03/03 11:48:18;;;;;;;;;;;;;;;18.79;62.40;102313.84;5008956;28;1318;-56
2021/03/03 11:50:43;;;;;;;;;;;;;;;18.81;62.51;102309.28;5003155;28;1383;-56
2021/03/03 11:53:08;;;;;;;;;;;;;;;18.80;62.62;102304.88;5001554;28;1308;-59
2021/03/03 11:55:33;;;;;;;;;;;;;;;18.88;62.27;102310.63;5001032;28;1352;-55
2021/03/03 11:57:59;;;;;;;;;;;;;;;18.94;61.72;102307.56;5002799;28;1258;-59
2021/03/03 12:00:24;;;;;;;;;;;;;;;18.86;62.14;102309.84;5007896;28;1165;-59
2021/03/03 12:02:50;;;;;;;;;;;;;;;18.79;62.57;102309.38;5005030;28;1882;-59
2021/03/03 12:05:15;;;;;;;;;;;;;;;18.80;62.48;102304.88;5013350;28;1140;-56
2021/03/03 12:07:40;;;;;;;;;;;;;;;18.76;62.50;102297.94;5005902;28;1211;-56
2021/03/03 12:10:06;;;;;;;;;;;;;;;18.73;62.40;102296.34;5014023;28;1117;-57
2021/03/03 12:12:31;;;;;;;;;;;;;;;18.74;62.65;102299.88;5009054;28;1324;-57
2021/03/03 12:14:57;;;;;;;;;;;;;;;18.72;62.84;102293.75;5015185;28;1285;-59
2021/03/03 12:17:22;;;;;;;;;;;;;;;18.69;62.70;102276.91;5002717;28;1372;-59
2021/03/03 12:19:47;;;;;;;;;;;;;;;18.69;62.99;102284.94;5013409;28;1238;-59
2021/03/03 12:22:13;;;;;;;;;;;;;;;18.68;62.92;102280.56;5015418;28;2005;-56
2021/03/03 12:24:38;;;;;;;;;;;;;;;18.67;62.84;102280.63;5011484;28;1203;-60
2021/03/03 12:27:03;;;;;;;;;;;;;;;18.67;62.89;102283.31;5004697;28;1356;-59
2021/03/03 12:29:28;;;;;;;;;;;;;;;18.68;62.80;102293.94;5003691;28;1287;-59
2021/03/03 12:31:54;;;;;;;;;;;;;;;18.69;62.71;102287.63;4997285;28;1196;-56
2021/03/03 12:34:19;;;;;;;;;;;;;;;18.67;63.15;102294.88;5002792;28;1306;-59
2021/03/03 12:36:44;;;;;;;;;;;;;;;18.67;63.04;102289.53;5013258;28;1245;-56
2021/03/03 12:39:10;;;;;;;;;;;;;;;18.72;63.20;102285.69;5015036;28;1240;-59
2021/03/03 12:41:35;;;;;;;;;;;;;;;18.73;63.20;102284.75;5015622;28;1878;-55
2021/03/03 12:44:01;;;;;;;;;;;;;;;18.73;63.08;102282.06;5015685;28;1089;-56
2021/03/03 12:46:27;;;;;;;;;;;;;;;18.71;63.48;102275.97;5016301;28;1125;-56
2021/03/03 12:48:52;;;;;;;;;;;;;;;18.71;62.84;102270.59;5016351;28;1295;-56
2021/03/03 12:51:19;;;;;;;;;;;;;;;18.72;63.06;102258.91;5016832;28;955;-56